Cottonwood Falls, Kansas
Current Conditions -  °F | °C
As of 6:53 PM on Saturday 20 Dec 2014 (Local Time) from KEMP Reporting Station
Clear Clear  
Wind Chill: 30°   Ceiling: Unl
Heat Index: 36°   Visibility: 10mi
Dew Point: 33°   Wind: 7mph
Humidity: 89%   Direction: 180°S
Pressure: 30.11"   Gusts: NA
Location:  38.37°N, 96.54°W
Report Text: KEMP 210053Z AUTO 18006KT 10SM CLR 02/01 A3011 RMK AO2 SLP209 T00220006
Loading
Personal Weather Stations






























Interactive Weather Map New forecast layout! Learn more

10-Day Weather Forecast

Advertisements
Track Severe Weather on mobile